Time;durP1;ratioP1;P1;durP2;ratioP2;P2;SDS_P1;SDS_P2;PMS_P1;PMS_P2;Temp;Humidity;BMP_temperature;BMP_pressure;BME280_temperature;BME280_humidity;BME280_pressure;Samples;Min_cycle;Max_cycle;Signal;HPM_P1;HPM_P2
2022/12/06 00:01:39;;;;;;;46.88;27.98;;;15.20;64.30;;;;;;6125402;23;20081;-82
2022/12/06 00:04:10;;;;;;;46.35;27.40;;;15.20;64.20;;;;;;6101645;23;20029;-80
2022/12/06 00:06:40;;;;;;;47.08;28.42;;;15.30;63.90;;;;;;6101408;23;20133;-81
2022/12/06 00:09:06;;;;;;;46.90;27.95;;;15.30;64.20;;;;;;6101890;23;20010;-82
2022/12/06 00:11:34;;;;;;;46.40;28.15;;;15.20;63.90;;;;;;6127456;23;20006;-80
2022/12/06 00:14:05;;;;;;;44.33;27.20;;;14.80;65.00;;;;;;6101589;23;20081;-82
2022/12/06 00:16:33;;;;;;;46.20;27.63;;;14.50;65.50;;;;;;6101663;23;20002;-80
2022/12/06 00:18:59;;;;;;;43.72;26.98;;;14.30;66.10;;;;;;6127479;23;20088;-80
2022/12/06 00:21:35;;;;;;;45.65;27.58;;;14.40;66.10;;;;;;6127173;23;20423;-82
2022/12/06 00:24:04;;;;;;;48.05;28.95;;;14.40;65.60;;;;;;6100970;23;20073;-82
2022/12/06 00:26:30;;;;;;;45.05;26.45;;;14.20;65.80;;;;;;6101375;23;20001;-82
2022/12/06 00:28:58;;;;;;;46.63;28.70;;;14.20;66.20;;;;;;6127374;23;20423;-80
2022/12/06 00:31:26;;;;;;;43.00;27.70;;;14.40;65.80;;;;;;6101337;23;20309;-82
2022/12/06 00:33:52;;;;;;;50.42;29.98;;;14.50;65.50;;;;;;6101221;23;20077;-81
2022/12/06 00:36:19;;;;;;;45.55;28.45;;;14.40;65.70;;;;;;6127200;23;20009;-81
2022/12/06 00:38:45;;;;;;;47.60;27.55;;;14.40;66.20;;;;;;6101453;23;20087;-81
2022/12/06 00:41:14;;;;;;;42.95;27.00;;;14.50;65.80;;;;;;6101257;23;20029;-81
2022/12/06 00:43:41;;;;;;;44.13;26.83;;;14.30;65.60;;;;;;6100878;23;20014;-82
2022/12/06 00:46:10;;;;;;;41.58;25.83;;;14.10;66.30;;;;;;6101345;23;20431;-79
2022/12/06 00:48:36;;;;;;;41.15;25.50;;;14.00;65.80;;;;;;6101921;23;20002;-80
2022/12/06 00:51:02;;;;;;;42.03;26.13;;;13.60;67.50;;;;;;6125283;23;20017;-81
2022/12/06 00:53:28;;;;;;;39.33;25.45;;;13.80;67.00;;;;;;6101391;23;20017;-81
2022/12/06 00:55:54;;;;;;;43.75;27.05;;;13.50;67.40;;;;;;6126819;23;20379;-79
2022/12/06 00:58:21;;;;;;;42.15;24.77;;;13.20;68.60;;;;;;6126766;23;20486;-83
2022/12/06 01:00:47;;;;;;;37.63;25.23;;;13.40;68.30;;;;;;6127139;23;20002;-80
2022/12/06 01:03:12;;;;;;;43.92;25.70;;;13.20;68.70;;;;;;6100672;23;20005;-80
2022/12/06 01:05:49;;;;;;;44.95;27.48;;;13.50;68.60;;;;;;6125418;23;20060;-81
2022/12/06 01:08:17;;;;;;;43.60;26.17;;;13.50;68.60;;;;;;6100487;23;20006;-83
2022/12/06 01:10:53;;;;;;;44.03;26.33;;;13.50;68.00;;;;;;6100422;23;20446;-80
2022/12/06 01:13:19;;;;;;;50.53;29.38;;;13.70;67.60;;;;;;6125774;23;20076;-80
2022/12/06 01:15:45;;;;;;;46.67;27.83;;;13.80;67.80;;;;;;6099901;23;20002;-81
2022/12/06 01:18:10;;;;;;;43.25;26.42;;;14.00;67.30;;;;;;6099285;23;20006;-80
2022/12/06 01:20:36;;;;;;;49.95;29.13;;;14.10;66.90;;;;;;6126060;23;20005;-81
2022/12/06 01:23:01;;;;;;;48.88;28.75;;;14.20;66.50;;;;;;6126159;23;20002;-82
2022/12/06 01:25:27;;;;;;;48.97;29.48;;;14.20;66.20;;;;;;6125308;23;20018;-82
2022/12/06 01:27:53;;;;;;;48.70;28.83;;;14.30;66.50;;;;;;6124495;23;20006;-80
2022/12/06 01:30:18;;;;;;;55.22;28.67;;;14.30;65.60;;;;;;6100695;23;20020;-81
2022/12/06 01:32:44;;;;;;;54.22;28.95;;;14.20;66.10;;;;;;6125101;23;19998;-82
2022/12/06 01:35:10;;;;;;;47.40;28.65;;;14.10;66.10;;;;;;6126771;23;19998;-82
2022/12/06 01:37:35;;;;;;;46.65;28.27;;;14.10;66.80;;;;;;6125190;23;20010;-81
2022/12/06 01:40:01;;;;;;;48.15;29.23;;;14.20;65.80;;;;;;6126684;23;20014;-81
2022/12/06 01:42:27;;;;;;;54.90;30.52;;;14.20;66.50;;;;;;6126186;23;20432;-81
2022/12/06 01:44:54;;;;;;;48.53;28.83;;;14.20;66.20;;;;;;6126640;23;20009;-84
2022/12/06 01:47:41;;;;;;;54.55;29.38;;;14.20;66.10;;;;;;6100579;23;20324;-83
2022/12/06 01:50:28;;;;;;;50.25;27.70;;;14.00;66.80;;;;;;6101124;23;20081;-83
2022/12/06 01:53:07;;;;;;;47.08;26.95;;;14.00;67.50;;;;;;6100959;23;20005;-83
2022/12/06 01:55:37;;;;;;;45.97;26.08;;;13.90;66.90;;;;;;6126820;23;20412;-80
2022/12/06 01:58:16;;;;;;;41.33;24.88;;;13.80;67.20;;;;;;6100693;23;20081;-81
2022/12/06 02:00:42;;;;;;;38.88;23.10;;;13.80;66.50;;;;;;6077506;23;20074;-81
2022/12/06 02:03:15;;;;;;;42.60;23.42;;;13.60;67.30;;;;;;6100326;23;20383;-81
2022/12/06 02:05:41;;;;;;;35.28;20.92;;;13.50;67.80;;;;;;6126540;23;20006;-82
2022/12/06 02:08:08;;;;;;;30.73;18.70;;;13.50;67.40;;;;;;6126387;23;20009;-81
2022/12/06 02:10:35;;;;;;;29.95;19.23;;;13.40;67.70;;;;;;6100396;23;20028;-83
2022/12/06 02:13:01;;;;;;;33.95;18.85;;;13.30;67.50;;;;;;6100656;23;20008;-82
2022/12/06 02:15:50;;;;;;;33.40;18.15;;;13.00;69.00;;;;;;6099926;23;20053;-79
2022/12/06 02:18:30;;;;;;;32.03;18.48;;;13.10;68.40;;;;;;6125876;23;20001;-82
2022/12/06 02:21:12;;;;;;;32.78;18.40;;;13.30;67.80;;;;;;6126623;23;20073;-81
2022/12/06 02:24:06;;;;;;;27.48;17.25;;;13.30;68.40;;;;;;6101121;23;20335;-80
2022/12/06 02:26:34;;;;;;;30.90;17.85;;;13.00;69.20;;;;;;6068383;23;20460;-81
2022/12/06 02:29:23;;;;;;;38.03;20.90;;;13.10;68.90;;;;;;6070458;23;20500;-80
2022/12/06 02:32:27;;;;;;;37.33;20.08;;;13.60;67.10;;;;;;6038539;23;20014;-81
2022/12/06 02:35:20;;;;;;;41.45;21.77;;;13.90;66.50;;;;;;6032949;23;20209;-82
2022/12/06 02:37:57;;;;;;;40.28;23.17;;;14.10;66.40;;;;;;6037875;23;20381;-80
2022/12/06 02:40:31;;;;;;;36.10;20.98;;;14.10;66.00;;;;;;6015169;23;20010;-81
2022/12/06 02:43:01;;;;;;;43.08;24.55;;;13.60;66.60;;;;;;6038927;23;20464;-81
2022/12/06 02:45:28;;;;;;;;;;;13.70;67.00;;;;;;6039365;23;20487;-81
2022/12/06 02:47:58;;;;;;;38.30;21.92;;;13.80;66.30;;;;;;6038546;23;19902;-82
2022/12/06 02:50:36;;;;;;;39.17;22.25;;;13.80;66.70;;;;;;6039258;23;20094;-82
2022/12/06 02:53:05;;;;;;;35.83;21.23;;;13.80;66.70;;;;;;6038375;23;20441;-82
2022/12/06 02:55:32;;;;;;;41.65;21.65;;;13.90;66.30;;;;;;6015148;23;20043;-82
2022/12/06 02:57:57;;;;;;;38.58;21.40;;;13.90;67.10;;;;;;6038536;23;20046;-82
2022/12/06 03:00:33;;;;;;;44.50;24.60;;;13.80;66.60;;;;;;6038932;23;20004;-80
2022/12/06 03:03:29;;;;;;;44.28;23.20;;;14.10;66.20;;;;;;6014627;23;20083;-81
2022/12/06 03:06:01;;;;;;;41.03;21.95;;;14.30;65.10;;;;;;6014782;23;20058;-80
2022/12/06 03:08:54;;;;;;;51.10;25.00;;;13.80;66.60;;;;;;6034871;23;20365;-80
2022/12/06 03:11:20;;;;;;;40.63;23.25;;;13.70;66.30;;;;;;6097310;23;20405;-83
2022/12/06 03:14:03;;;;;;;42.00;23.23;;;13.80;67.00;;;;;;6072356;23;20006;-79
2022/12/06 03:16:33;;;;;;;41.35;22.83;;;13.80;66.90;;;;;;6073256;23;20014;-82
2022/12/06 03:19:10;;;;;;;46.53;24.40;;;13.60;67.00;;;;;;6098129;23;20014;-82
2022/12/06 03:21:45;;;;;;;48.40;24.17;;;13.40;68.00;;;;;;6072903;23;20006;-82
2022/12/06 03:24:14;;;;;;;45.65;24.20;;;13.50;67.20;;;;;;6078858;23;20439;-80
2022/12/06 03:26:43;;;;;;;43.88;24.50;;;13.50;67.80;;;;;;6127148;23;20013;-79
2022/12/06 03:29:10;;;;;;;50.20;25.55;;;13.50;67.60;;;;;;6102343;23;20344;-80
2022/12/06 03:31:40;;;;;;;49.50;25.05;;;13.30;68.00;;;;;;6127341;23;20048;-79
2022/12/06 03:34:18;;;;;;;58.78;24.20;;;13.20;67.90;;;;;;6100982;23;20455;-80
2022/12/06 03:36:46;;;;;;;44.35;23.55;;;13.00;68.50;;;;;;6101390;23;20159;-81
2022/12/06 03:39:18;;;;;;;42.90;24.15;;;12.80;69.00;;;;;;6101553;23;20069;-79
2022/12/06 03:41:57;;;;;;;46.03;24.25;;;12.90;69.20;;;;;;6127425;23;20025;-79
2022/12/06 03:44:24;;;;;;;37.03;22.50;;;13.00;68.60;;;;;;6095023;23;20428;-78
2022/12/06 03:46:58;;;;;;;42.92;23.85;;;13.00;68.10;;;;;;6102331;23;20005;-83
2022/12/06 03:49:45;;;;;;;52.33;25.00;;;12.80;68.80;;;;;;6101838;23;20045;-79
2022/12/06 03:52:11;;;;;;;47.38;23.00;;;12.70;68.90;;;;;;6101497;23;20005;-81
2022/12/06 03:54:38;;;;;;;47.15;23.63;;;12.60;69.90;;;;;;6101507;23;20053;-83
2022/12/06 03:57:04;;;;;;;52.72;25.05;;;12.70;69.70;;;;;;6127579;23;20064;-80
2022/12/06 03:59:30;;;;;;;37.85;21.48;;;12.80;69.30;;;;;;6101724;23;20045;-80
2022/12/06 04:01:55;;;;;;;41.42;22.83;;;12.80;69.20;;;;;;6127370;23;20002;-79
2022/12/06 04:04:21;;;;;;;41.20;22.48;;;12.70;69.70;;;;;;6126070;23;20400;-80
2022/12/06 04:06:47;;;;;;;40.28;22.85;;;12.50;69.30;;;;;;6125946;23;20002;-79
2022/12/06 04:14:58;;;;;;;40.28;21.77;;;13.00;68.60;;;;;;6066965;23;20106;-80
2022/12/06 04:20:09;;;;;;;38.05;21.75;;;13.00;68.60;;;;;;5981399;24;20012;-80
2022/12/06 04:25:19;;;;;;;32.38;18.05;;;13.60;67.30;;;;;;5997347;23;20423;-80
2022/12/06 04:38:42;;;;;;;23.52;14.02;;;14.00;65.00;;;;;;6009559;23;20014;-82
2022/12/06 04:41:09;;;;;;;24.02;15.00;;;14.00;64.90;;;;;;5985505;23;20016;-80
2022/12/06 04:43:43;;;;;;;28.27;14.48;;;14.10;64.90;;;;;;6008495;23;20008;-80
2022/12/06 04:46:10;;;;;;;21.95;13.18;;;14.00;64.40;;;;;;6011933;23;20079;-79
2022/12/06 04:48:37;;;;;;;23.98;13.77;;;13.20;66.20;;;;;;6013861;23;20011;-80
2022/12/06 04:51:02;;;;;;;25.42;14.57;;;12.60;68.60;;;;;;6037228;23;20030;-80
2022/12/06 04:53:28;;;;;;;22.83;13.45;;;12.40;69.30;;;;;;6013427;23;20003;-80
2022/12/06 04:55:54;;;;;;;24.02;14.52;;;12.30;69.80;;;;;;6037435;23;20011;-81
2022/12/06 04:58:19;;;;;;;22.13;13.85;;;12.20;70.20;;;;;;6120958;23;20030;-80
2022/12/06 05:00:45;;;;;;;27.08;14.63;;;12.30;70.20;;;;;;6099967;23;20424;-80
2022/12/06 05:03:13;;;;;;;23.10;13.88;;;12.50;69.80;;;;;;6100337;23;20064;-80
2022/12/06 05:05:39;;;;;;;23.27;13.90;;;13.00;68.50;;;;;;6100964;23;20021;-79
2022/12/06 05:08:05;;;;;;;31.02;15.43;;;13.50;67.40;;;;;;6126934;23;20002;-81
2022/12/06 05:10:37;;;;;;;28.42;16.27;;;13.70;66.80;;;;;;6127100;23;20030;-80
2022/12/06 05:13:03;;;;;;;33.05;16.90;;;13.70;66.70;;;;;;6125685;23;19998;-79
2022/12/06 05:15:29;;;;;;;27.85;15.60;;;14.00;65.90;;;;;;6126860;23;20322;-80
2022/12/06 05:17:55;;;;;;;34.47;17.38;;;14.20;65.30;;;;;;6126590;23;20005;-82
2022/12/06 05:20:21;;;;;;;28.80;16.30;;;14.40;65.00;;;;;;6100728;23;20005;-82
2022/12/06 05:22:47;;;;;;;44.58;19.25;;;14.60;64.30;;;;;;6124920;23;20028;-79
2022/12/06 05:25:12;;;;;;;36.70;18.42;;;14.60;64.50;;;;;;6099589;23;20021;-81
2022/12/06 05:27:38;;;;;;;35.85;18.63;;;14.70;63.90;;;;;;6099774;23;20006;-81
2022/12/06 05:30:05;;;;;;;32.47;18.05;;;14.40;64.80;;;;;;6126144;23;20028;-81
2022/12/06 05:32:31;;;;;;;33.03;19.05;;;14.20;64.80;;;;;;6098842;23;20006;-82
2022/12/06 05:34:56;;;;;;;37.08;20.00;;;14.40;64.60;;;;;;6100974;23;20013;-79
2022/12/06 05:37:23;;;;;;;37.33;19.33;;;14.60;63.90;;;;;;6123572;23;20009;-81
2022/12/06 05:39:48;;;;;;;29.23;16.60;;;14.70;63.60;;;;;;6126716;23;20419;-81
2022/12/06 05:42:14;;;;;;;39.00;20.52;;;14.90;62.90;;;;;;6125363;23;20009;-82
2022/12/06 05:44:40;;;;;;;31.85;18.48;;;14.70;63.70;;;;;;6125240;23;20440;-79
2022/12/06 05:47:06;;;;;;;36.85;21.52;;;14.70;63.50;;;;;;6100380;23;20491;-81
2022/12/06 05:49:32;;;;;;;31.08;19.48;;;14.70;63.70;;;;;;6126314;23;20025;-81
2022/12/06 05:51:57;;;;;;;39.80;24.38;;;14.70;63.20;;;;;;6126298;23;20002;-80
2022/12/06 05:54:23;;;;;;;47.08;27.73;;;14.60;63.90;;;;;;6125338;23;19997;-80
2022/12/06 05:56:49;;;;;;;41.88;23.23;;;14.40;64.10;;;;;;6122469;23;20557;-78
2022/12/06 05:59:15;;;;;;;41.80;23.00;;;14.40;64.60;;;;;;6098162;23;20012;-81
2022/12/06 06:01:41;;;;;;;42.00;23.33;;;14.50;64.30;;;;;;6098177;23;20435;-79
2022/12/06 06:04:07;;;;;;;43.58;22.52;;;14.50;64.10;;;;;;6122385;23;20010;-80
2022/12/06 06:06:33;;;;;;;43.78;22.30;;;14.40;64.10;;;;;;6124953;23;20017;-80
2022/12/06 06:08:58;;;;;;;43.55;24.08;;;14.40;64.00;;;;;;6125558;23;20005;-79
2022/12/06 06:11:24;;;;;;;42.80;24.20;;;14.50;63.60;;;;;;6123234;23;20066;-79
2022/12/06 06:13:50;;;;;;;44.70;22.60;;;14.60;63.60;;;;;;6125414;23;20002;-79
2022/12/06 06:16:15;;;;;;;45.47;21.80;;;14.60;63.60;;;;;;6124028;23;20362;-79
2022/12/06 06:18:41;;;;;;;40.08;22.20;;;14.60;63.30;;;;;;6099499;23;20010;-79
2022/12/06 06:21:07;;;;;;;44.78;22.92;;;14.50;63.70;;;;;;6123814;23;20335;-78
2022/12/06 06:23:33;;;;;;;53.13;24.30;;;14.50;63.90;;;;;;6124508;23;20486;-79
2022/12/06 06:25:58;;;;;;;40.20;22.17;;;14.50;63.60;;;;;;6098950;23;20021;-78
2022/12/06 06:28:24;;;;;;;55.00;24.45;;;14.40;64.10;;;;;;6124563;23;20006;-78
2022/12/06 06:30:50;;;;;;;46.80;24.60;;;14.40;64.30;;;;;;6117726;23;20021;-79
2022/12/06 06:33:16;;;;;;;47.22;25.58;;;14.50;63.70;;;;;;6120335;23;20002;-78
2022/12/06 06:35:42;;;;;;;45.72;23.70;;;14.50;63.80;;;;;;6098201;23;20015;-78
2022/12/06 06:38:08;;;;;;;45.03;22.70;;;14.50;63.70;;;;;;6097561;23;20006;-80
2022/12/06 06:40:34;;;;;;;64.78;23.40;;;14.60;62.80;;;;;;6124600;23;20420;-79
2022/12/06 06:43:16;;;;;;;56.75;25.25;;;14.50;63.10;;;;;;6094240;23;20013;-80
2022/12/06 06:46:05;;;;;;;68.25;29.13;;;14.70;63.50;;;;;;6120461;23;20096;-79
2022/12/06 06:48:37;;;;;;;44.40;22.13;;;14.80;62.80;;;;;;6094221;23;20097;-79
2022/12/06 06:51:08;;;;;;;39.65;21.35;;;14.70;62.80;;;;;;6088037;23;20371;-80
2022/12/06 06:53:34;;;;;;;35.47;20.65;;;14.60;63.70;;;;;;6122079;23;20001;-81
2022/12/06 06:55:59;;;;;;;38.80;20.80;;;14.50;63.30;;;;;;6121479;23;20002;-80
2022/12/06 06:58:25;;;;;;;35.28;18.83;;;14.50;63.50;;;;;;6122704;23;20002;-80
2022/12/06 07:00:56;;;;;;;39.28;20.58;;;14.40;63.30;;;;;;6120797;23;20096;-79
2022/12/06 07:03:22;;;;;;;37.58;20.42;;;14.30;64.20;;;;;;6096486;23;20364;-79
2022/12/06 07:05:52;;;;;;;39.72;21.40;;;14.50;63.50;;;;;;6097133;23;20454;-78
2022/12/06 07:08:17;;;;;;;39.70;20.50;;;14.70;63.00;;;;;;6097436;23;20432;-81
2022/12/06 07:10:47;;;;;;;40.80;22.20;;;14.80;63.00;;;;;;6123693;23;20013;-81
2022/12/06 07:13:14;;;;;;;47.17;23.70;;;14.80;62.90;;;;;;6123772;23;20005;-80
2022/12/06 07:15:41;;;;;;;38.13;21.48;;;14.90;62.50;;;;;;6099201;23;20311;-79
2022/12/06 07:18:06;;;;;;;102.45;56.45;;;14.80;62.50;;;;;;6099494;23;20006;-81
2022/12/06 07:20:32;;;;;;;83.32;47.13;;;14.70;63.40;;;;;;6124850;23;20009;-80
2022/12/06 07:22:58;;;;;;;55.97;33.78;;;14.80;63.30;;;;;;6123674;23;20028;-81
2022/12/06 07:25:23;;;;;;;84.43;51.78;;;14.80;62.90;;;;;;6124463;23;20022;-80
2022/12/06 07:27:49;;;;;;;82.82;50.83;;;14.90;63.00;;;;;;6123381;23;20008;-79
2022/12/06 07:30:15;;;;;;;42.63;23.35;;;14.90;62.80;;;;;;6123568;23;20020;-80
2022/12/06 07:32:41;;;;;;;47.42;22.67;;;14.80;62.50;;;;;;6123373;23;20137;-81
2022/12/06 07:35:07;;;;;;;38.53;22.77;;;14.70;62.90;;;;;;6123686;23;20006;-79
2022/12/06 07:37:32;;;;;;;43.20;23.40;;;14.80;62.60;;;;;;6099257;23;20347;-80
2022/12/06 07:39:58;;;;;;;37.40;20.85;;;14.50;63.50;;;;;;6098660;23;20454;-79
2022/12/06 07:45:12;;;;;;;44.15;21.58;;;14.50;63.10;;;;;;6123834;23;20076;-80
2022/12/06 07:47:41;;;;;;;33.92;19.77;;;14.60;63.60;;;;;;6098690;23;20002;-82
2022/12/06 07:50:13;;;;;;;41.47;21.38;;;14.70;63.00;;;;;;6099168;23;20013;-80
2022/12/06 07:52:38;;;;;;;41.90;23.02;;;14.90;62.60;;;;;;6099388;23;20029;-79
2022/12/06 07:55:06;;;;;;;40.15;23.92;;;15.00;62.70;;;;;;6125022;23;20324;-81
2022/12/06 07:57:32;;;;;;;34.17;17.95;;;15.00;62.00;;;;;;6098962;23;20551;-82
2022/12/06 07:59:58;;;;;;;31.02;18.23;;;14.50;62.70;;;;;;6122762;23;20061;-81
2022/12/06 08:02:26;;;;;;;29.63;17.63;;;14.30;63.20;;;;;;6098973;23;20002;-81
2022/12/06 08:04:53;;;;;;;24.23;15.57;;;14.40;63.60;;;;;;6099154;23;20018;-81
2022/12/06 08:07:19;;;;;;;22.00;13.15;;;14.40;62.80;;;;;;6124739;23;20029;-80
2022/12/06 08:09:45;;;;;;;12.30;8.48;;;14.20;63.60;;;;;;6098799;23;20081;-80
2022/12/06 08:12:11;;;;;;;13.90;9.38;;;13.90;62.60;;;;;;6123960;23;20040;-80
2022/12/06 08:14:36;;;;;;;9.93;7.18;;;13.60;64.60;;;;;;6123395;23;20010;-80
2022/12/06 08:17:04;;;;;;;9.85;6.30;;;13.60;64.20;;;;;;6125211;23;20567;-81
2022/12/06 08:19:30;;;;;;;9.70;6.80;;;13.60;63.90;;;;;;6123313;23;20113;-82
2022/12/06 08:21:56;;;;;;;8.70;6.93;;;13.70;64.20;;;;;;6098771;23;20026;-82
2022/12/06 08:24:22;;;;;;;10.50;7.95;;;13.60;64.10;;;;;;6098874;23;20017;-81
2022/12/06 08:26:49;;;;;;;10.10;8.02;;;13.40;64.60;;;;;;6100184;23;20024;-82
2022/12/06 08:29:15;;;;;;;11.52;8.50;;;13.60;64.40;;;;;;6125183;23;20009;-82
2022/12/06 08:31:41;;;;;;;9.48;7.07;;;13.80;63.90;;;;;;6123501;23;20010;-82
2022/12/06 08:34:06;;;;;;;8.68;6.53;;;13.80;63.60;;;;;;6125647;23;20013;-81
2022/12/06 08:36:32;;;;;;;19.98;12.80;;;13.70;63.60;;;;;;6124332;23;19998;-80
2022/12/06 08:38:59;;;;;;;44.40;30.45;;;13.70;63.50;;;;;;6125502;23;20089;-82
2022/12/06 08:44:14;;;;;;;11.20;8.52;;;13.40;64.30;;;;;;6126913;23;20030;-82
2022/12/06 08:46:40;;;;;;;11.75;10.20;;;13.80;63.40;;;;;;6125388;23;19994;-80
2022/12/06 08:49:06;;;;;;;7.68;5.75;;;14.10;63.60;;;;;;6100708;23;20032;-81
2022/12/06 08:51:32;;;;;;;14.68;12.73;;;14.80;62.40;;;;;;6124197;23;20301;-79
2022/12/06 08:53:58;;;;;;;12.10;10.10;;;16.00;60.40;;;;;;6125488;23;20073;-80
2022/12/06 08:56:24;;;;;;;24.38;17.23;;;17.00;57.70;;;;;;6124240;23;20372;-80
2022/12/06 08:58:52;;;;;;;17.83;12.45;;;18.00;56.40;;;;;;6126217;23;20069;-81
2022/12/06 09:01:27;;;;;;;9.02;7.35;;;19.30;54.70;;;;;;6100849;23;20034;-81
2022/12/06 09:03:53;;;;;;;10.95;7.72;;;20.40;52.20;;;;;;6092272;23;20014;-81
2022/12/06 09:06:20;;;;;;;11.23;8.80;;;20.00;51.50;;;;;;6125010;23;20057;-87
2022/12/06 09:08:47;;;;;;;13.27;10.60;;;20.10;51.80;;;;;;6126806;23;20005;-80
2022/12/06 09:11:14;;;;;;;12.70;9.43;;;19.80;52.40;;;;;;6100691;23;20016;-79
2022/12/06 09:13:40;;;;;;;13.63;10.63;;;20.60;50.70;;;;;;6100813;23;20367;-83
2022/12/06 09:16:11;;;;;;;10.88;7.35;;;21.20;51.30;;;;;;6100333;23;20002;-81
2022/12/06 09:18:37;;;;;;;7.90;4.95;;;21.10;49.40;;;;;;6100382;23;20461;-81
2022/12/06 09:21:08;;;;;;;8.07;6.80;;;20.30;50.70;;;;;;6126659;23;20029;-82
2022/12/06 09:23:35;;;;;;;8.00;7.20;;;19.70;51.80;;;;;;6100896;23;20006;-81
2022/12/06 09:26:01;;;;;;;5.22;4.07;;;19.60;51.90;;;;;;6100189;23;20025;-81
2022/12/06 09:28:28;;;;;;;9.27;7.15;;;18.70;52.20;;;;;;6099228;23;20006;-80
2022/12/06 09:30:54;;;;;;;9.63;5.22;;;18.00;53.80;;;;;;6099973;23;20018;-80
2022/12/06 09:33:21;;;;;;;10.88;7.68;;;17.40;55.00;;;;;;6126112;23;20134;-81
2022/12/06 09:35:49;;;;;;;8.82;7.28;;;16.90;55.70;;;;;;6124576;23;20002;-81
2022/12/06 09:38:15;;;;;;;9.60;7.88;;;16.60;56.00;;;;;;6100801;23;20013;-82
2022/12/06 09:40:49;;;;;;;15.32;10.07;;;16.20;56.90;;;;;;6126236;23;20458;-81
2022/12/06 09:43:47;;;;;;;13.75;8.88;;;15.60;57.10;;;;;;6125868;23;20093;-81
2022/12/06 09:46:25;;;;;;;25.15;15.15;;;14.80;58.70;;;;;;6099818;23;20033;-80
2022/12/06 09:49:06;;;;;;;22.20;13.65;;;14.50;60.60;;;;;;6126462;23;20107;-80
2022/12/06 09:51:47;;;;;;;14.95;8.95;;;14.50;59.80;;;;;;6100449;23;20017;-80
2022/12/06 09:54:21;;;;;;;9.35;7.05;;;14.40;60.30;;;;;;6100160;23;20013;-80
2022/12/06 09:57:06;;;;;;;9.80;7.88;;;14.60;59.80;;;;;;6126077;23;20336;-80
2022/12/06 09:59:56;;;;;;;7.30;6.35;;;14.80;59.60;;;;;;6100223;23;20018;-80
2022/12/06 10:02:43;;;;;;;8.35;6.50;;;15.00;59.40;;;;;;6126130;23;20029;-81
2022/12/06 10:05:52;;;;;;;6.82;5.05;;;16.50;58.30;;;;;;6125864;23;20064;-81
2022/12/06 10:09:14;;;;;;;6.88;5.32;;;17.70;55.50;;;;;;6100107;23;20009;-81
2022/12/06 10:11:45;;;;;;;6.03;4.20;;;19.00;53.80;;;;;;5980240;24;20000;-80
2022/12/06 10:14:29;;;;;;;16.65;12.23;;;19.80;51.30;;;;;;5980611;24;20035;-81
2022/12/06 10:17:17;;;;;;;41.75;33.90;;;20.10;51.60;;;;;;5980120;24;20004;-80
2022/12/06 10:20:04;;;;;;;15.02;13.40;;;20.80;50.90;;;;;;5957321;24;20008;-81
2022/12/06 10:22:35;;;;;;;6.40;4.10;;;22.00;49.90;;;;;;5980168;24;20008;-81
2022/12/06 10:25:07;;;;;;;8.23;7.32;;;22.60;49.20;;;;;;5980173;24;20031;-80
2022/12/06 10:27:38;;;;;;;7.60;5.18;;;23.20;48.40;;;;;;5980047;23;20070;-80
2022/12/06 10:30:12;;;;;;;6.88;6.00;;;22.10;47.40;;;;;;5980229;24;20020;-80
2022/12/06 10:33:04;;;;;;;5.13;3.80;;;20.40;49.70;;;;;;5979997;23;20000;-79
2022/12/06 10:35:43;;;;;;;5.82;5.18;;;18.90;51.20;;;;;;5972961;24;20027;-80
2022/12/06 10:38:23;;;;;;;5.00;4.05;;;18.10;53.00;;;;;;5980171;24;20001;-81
2022/12/06 10:41:08;;;;;;;10.25;7.15;;;17.30;54.30;;;;;;5980237;24;20012;-80
2022/12/06 10:43:43;;;;;;;6.18;4.82;;;16.80;54.50;;;;;;6099745;23;20010;-81
2022/12/06 10:49:18;;;;;;;5.65;3.55;;;14.80;59.20;;;;;;6127885;23;20017;-80
2022/12/06 10:52:21;;;;;;;4.50;3.00;;;14.80;59.10;;;;;;6101822;23;20061;-79
2022/12/06 10:55:01;;;;;;;5.28;3.35;;;14.70;58.50;;;;;;6127474;23;19994;-79
2022/12/06 10:57:29;;;;;;;4.50;3.50;;;14.60;59.30;;;;;;6101678;23;20032;-80
2022/12/06 11:00:02;;;;;;;5.22;3.20;;;14.70;59.00;;;;;;6101415;23;20439;-79
2022/12/06 11:02:40;;;;;;;5.35;3.63;;;14.40;58.80;;;;;;6101859;23;20081;-80
2022/12/06 11:05:30;;;;;;;22.40;13.65;;;14.40;59.60;;;;;;6101645;23;20459;-79
2022/12/06 11:08:13;;;;;;;10.20;6.03;;;14.20;58.30;;;;;;6127664;23;19998;-80
2022/12/06 11:10:42;;;;;;;5.50;3.70;;;13.80;59.70;;;;;;6127555;23;20482;-80
2022/12/06 11:13:33;;;;;;;4.90;3.40;;;14.10;60.10;;;;;;6101419;23;20002;-80
2022/12/06 11:16:16;;;;;;;5.15;3.05;;;14.50;58.80;;;;;;6101644;23;20041;-80
2022/12/06 11:18:44;;;;;;;7.88;4.72;;;14.30;59.10;;;;;;6127557;23;20010;-80
2022/12/06 11:21:50;;;;;;;6.70;4.65;;;14.40;58.90;;;;;;6127362;23;20327;-80
2022/12/06 11:24:24;;;;;;;5.20;3.65;;;14.50;58.90;;;;;;5958169;24;20099;-80
2022/12/06 11:27:04;;;;;;;8.95;5.78;;;14.70;59.10;;;;;;5981654;23;20365;-79
2022/12/06 11:29:30;;;;;;;4.90;3.30;;;14.80;58.20;;;;;;5958224;24;20039;-80
2022/12/06 11:32:01;;;;;;;5.70;3.55;;;14.30;58.80;;;;;;5981740;23;20057;-79
2022/12/06 11:34:42;;;;;;;6.20;3.70;;;14.20;59.20;;;;;;5981565;23;20015;-80
2022/12/06 11:37:16;;;;;;;3.78;2.33;;;13.90;57.20;;;;;;5981868;24;20372;-81
2022/12/06 11:39:43;;;;;;;4.80;3.03;;;13.10;60.80;;;;;;5981732;24;20559;-80
2022/12/06 11:42:13;;;;;;;44.70;22.10;;;13.40;59.90;;;;;;5981369;24;20008;-79
2022/12/06 11:44:47;;;;;;;80.22;36.38;;;13.30;59.00;;;;;;5958248;24;20096;-80
2022/12/06 11:47:17;;;;;;;15.73;9.10;;;13.40;60.10;;;;;;5981870;23;20442;-81
2022/12/06 11:49:45;;;;;;;6.25;3.50;;;13.90;60.20;;;;;;5981545;24;20175;-81
2022/12/06 11:52:29;;;;;;;5.90;4.03;;;14.10;59.00;;;;;;5981925;24;20347;-81
2022/12/06 11:55:03;;;;;;;4.50;3.10;;;14.20;58.60;;;;;;5981680;24;20374;-80
2022/12/06 11:57:37;;;;;;;4.30;2.80;;;14.20;58.70;;;;;;6012952;23;20006;-80
2022/12/06 12:00:15;;;;;;;4.93;3.80;;;14.20;57.60;;;;;;6127278;23;20002;-80
2022/12/06 12:02:44;;;;;;;6.18;4.00;;;14.00;57.90;;;;;;6101480;23;20093;-81
2022/12/06 12:05:33;;;;;;;4.05;2.97;;;13.70;59.30;;;;;;6126986;23;20432;-79
2022/12/06 12:08:00;;;;;;;4.55;3.28;;;13.20;59.30;;;;;;6101485;23;20345;-80
2022/12/06 12:10:26;;;;;;;4.20;2.80;;;13.10;60.10;;;;;;6126971;23;20077;-82
2022/12/06 12:15:46;;;;;;;4.03;2.50;;;13.00;60.30;;;;;;6127389;23;20335;-81
2022/12/06 12:18:24;;;;;;;2.88;1.92;;;13.20;59.40;;;;;;6101238;23;20089;-81
2022/12/06 12:20:51;;;;;;;3.50;2.40;;;13.00;58.50;;;;;;6127076;23;20009;-80
2022/12/06 12:23:30;;;;;;;3.38;2.42;;;12.90;59.20;;;;;;6100954;23;20010;-80
2022/12/06 12:26:11;;;;;;;4.70;2.50;;;12.70;59.60;;;;;;6126985;23;20010;-81
2022/12/06 12:28:37;;;;;;;3.78;2.65;;;12.80;60.40;;;;;;6127557;23;20006;-81
2022/12/06 12:31:25;;;;;;;3.97;2.53;;;12.70;59.40;;;;;;6127137;23;20010;-80
2022/12/06 12:34:20;;;;;;;4.07;2.83;;;12.70;59.90;;;;;;6101179;23;20037;-82
2022/12/06 12:36:49;;;;;;;3.67;2.50;;;12.90;60.10;;;;;;6126574;23;20006;-80
2022/12/06 12:39:30;;;;;;;3.78;2.80;;;12.70;59.40;;;;;;6100990;23;20384;-80
2022/12/06 12:41:56;;;;;;;3.42;2.53;;;12.40;60.90;;;;;;6126984;23;20077;-82
2022/12/06 12:44:32;;;;;;;4.10;3.00;;;12.70;60.00;;;;;;6126998;23;20045;-80
2022/12/06 12:47:03;;;;;;;3.90;2.90;;;12.60;61.50;;;;;;6101047;23;20096;-80
2022/12/06 12:49:37;;;;;;;4.18;3.08;;;12.90;60.40;;;;;;6126521;23;20006;-82
2022/12/06 12:52:30;;;;;;;3.80;2.85;;;13.20;60.80;;;;;;6100795;23;20002;-79
2022/12/06 12:55:02;;;;;;;4.20;2.90;;;13.10;60.10;;;;;;6100753;23;20081;-81
2022/12/06 12:57:27;;;;;;;4.38;3.00;;;12.80;60.30;;;;;;6126932;23;20006;-81
2022/12/06 12:59:53;;;;;;;4.60;3.25;;;12.70;60.90;;;;;;6100816;23;20423;-79
2022/12/06 13:02:27;;;;;;;4.43;3.10;;;13.00;60.20;;;;;;6125208;23;20502;-81
2022/12/06 13:05:01;;;;;;;5.32;3.42;;;12.90;60.00;;;;;;6100853;23;20018;-80
2022/12/06 13:07:31;;;;;;;4.88;3.50;;;13.20;60.60;;;;;;6100365;23;20013;-82
2022/12/06 13:10:13;;;;;;;5.00;3.50;;;13.10;60.30;;;;;;6100655;23;20010;-80
2022/12/06 13:12:58;;;;;;;6.43;3.42;;;13.40;59.80;;;;;;6100433;23;20431;-81
2022/12/06 13:15:35;;;;;;;4.43;3.30;;;13.70;59.20;;;;;;6127001;23;20048;-81
2022/12/06 13:18:11;;;;;;;5.10;3.22;;;13.70;58.80;;;;;;6099948;23;20447;-79
2022/12/06 13:20:38;;;;;;;5.20;3.90;;;13.40;59.20;;;;;;6100183;23;20033;-81
2022/12/06 13:23:12;;;;;;;4.60;3.08;;;13.50;59.80;;;;;;6126522;23;20324;-82
2022/12/06 13:25:38;;;;;;;4.63;3.35;;;13.60;58.80;;;;;;6125980;23;20024;-81
2022/12/06 13:28:12;;;;;;;5.97;3.20;;;13.30;59.30;;;;;;6100689;23;20089;-81